createdAt,value
2022-08-04T00:00:29.010Z,21.80
2022-08-04T00:03:14.296Z,21.80
2022-08-04T00:05:46.115Z,21.80
2022-08-04T00:08:29.319Z,21.80
2022-08-04T00:10:59.364Z,21.80
2022-08-04T00:13:29.482Z,21.80
2022-08-04T00:16:03.405Z,21.80
2022-08-04T00:18:34.573Z,21.70
2022-08-04T00:21:05.750Z,21.70
2022-08-04T00:24:10.701Z,21.70
2022-08-04T00:26:22.301Z,21.70
2022-08-04T00:28:52.055Z,21.70
2022-08-04T00:31:21.426Z,21.60
2022-08-04T00:34:14.076Z,21.50
2022-08-04T00:36:44.218Z,21.40
2022-08-04T00:39:15.896Z,21.40
2022-08-04T00:42:12.211Z,21.40
2022-08-04T00:45:00.630Z,21.50
2022-08-04T00:48:13.682Z,21.50
2022-08-04T00:50:50.101Z,21.50
2022-08-04T00:53:39.583Z,21.50
2022-08-04T00:56:39.714Z,21.40
2022-08-04T00:59:37.582Z,21.60
2022-08-04T01:02:44.666Z,21.50
2022-08-04T01:05:26.407Z,21.30
2022-08-04T01:08:12.499Z,21.30
2022-08-04T01:11:05.583Z,21.30
2022-08-04T01:14:29.964Z,21.20
2022-08-04T01:17:12.992Z,21.20
2022-08-04T01:19:48.921Z,21.30
2022-08-04T01:22:32.210Z,21.20
2022-08-04T01:25:17.522Z,21.20
2022-08-04T01:27:58.156Z,21.20
2022-08-04T01:30:27.610Z,21.10
2022-08-04T01:33:04.554Z,21.00
2022-08-04T01:35:47.407Z,21.10
2022-08-04T01:38:30.178Z,21.00
2022-08-04T01:41:05.558Z,21.20
2022-08-04T01:43:35.635Z,21.20
2022-08-04T01:46:05.304Z,21.20
2022-08-04T01:48:34.081Z,21.20
2022-08-04T01:51:07.489Z,21.10
2022-08-04T01:53:41.021Z,21.10
2022-08-04T01:56:12.372Z,21.10
2022-08-04T01:58:40.057Z,21.10
2022-08-04T02:01:10.960Z,21.10
2022-08-04T02:04:20.207Z,21.00
2022-08-04T02:06:38.305Z,21.00
2022-08-04T02:09:54.561Z,21.00
2022-08-04T02:13:18.136Z,21.00
2022-08-04T02:15:58.411Z,20.90
2022-08-04T02:18:50.080Z,20.90
2022-08-04T02:21:19.949Z,20.90
2022-08-04T02:23:54.561Z,20.90
2022-08-04T02:26:22.746Z,20.90
2022-08-04T02:29:17.574Z,20.90
2022-08-04T02:31:58.916Z,20.80
2022-08-04T02:34:33.190Z,20.80
2022-08-04T02:37:00.695Z,20.80
2022-08-04T02:39:48.121Z,20.80
2022-08-04T02:42:16.470Z,20.80
2022-08-04T02:44:44.026Z,20.80
2022-08-04T02:47:12.302Z,20.70
2022-08-04T02:49:41.264Z,20.70
2022-08-04T02:52:11.619Z,20.70
2022-08-04T02:54:45.887Z,20.70
2022-08-04T02:57:14.867Z,20.70
2022-08-04T03:00:11.834Z,20.70
2022-08-04T03:03:03.471Z,20.70
2022-08-04T03:06:13.411Z,20.60
2022-08-04T03:09:30.343Z,20.60
2022-08-04T03:12:59.125Z,20.60
2022-08-04T03:16:17.789Z,20.40
2022-08-04T03:18:53.665Z,20.60
2022-08-04T03:21:57.752Z,20.50
2022-08-04T03:24:30.713Z,20.60
2022-08-04T03:27:31.237Z,20.60
2022-08-04T03:30:12.126Z,20.70
2022-08-04T03:33:00.639Z,20.70
2022-08-04T03:35:44.033Z,20.60
2022-08-04T03:38:29.790Z,20.50
2022-08-04T03:41:51.608Z,20.50
2022-08-04T03:44:32.178Z,20.50
2022-08-04T03:47:08.084Z,20.50
2022-08-04T03:49:51.026Z,20.60
2022-08-04T03:52:58.559Z,20.60
2022-08-04T03:56:01.053Z,20.50
2022-08-04T03:58:49.865Z,20.60
2022-08-04T04:01:57.845Z,20.50
2022-08-04T04:04:49.893Z,20.50
2022-08-04T04:07:58.260Z,20.50
2022-08-04T04:10:47.455Z,20.50
2022-08-04T04:13:21.336Z,20.50
2022-08-04T04:15:55.860Z,20.60
2022-08-04T04:18:51.201Z,20.60
2022-08-04T04:21:44.949Z,20.50
2022-08-04T04:24:34.115Z,20.50
2022-08-04T04:27:26.649Z,20.50
2022-08-04T04:30:21.622Z,20.50
2022-08-04T04:33:16.907Z,20.60
2022-08-04T04:36:13.435Z,20.60
2022-08-04T04:38:58.810Z,20.50
2022-08-04T04:41:40.823Z,20.60
2022-08-04T04:44:30.278Z,20.60
2022-08-04T04:47:12.036Z,20.50
2022-08-04T04:49:57.600Z,20.40
2022-08-04T04:52:29.167Z,20.40
2022-08-04T04:54:58.906Z,20.40
2022-08-04T04:57:54.597Z,20.30
2022-08-04T05:00:16.905Z,20.40
2022-08-04T05:03:08.622Z,20.50
2022-08-04T05:06:00.787Z,20.40
2022-08-04T05:08:54.686Z,20.40
2022-08-04T05:11:39.727Z,20.50
2022-08-04T05:14:37.543Z,20.50
2022-08-04T05:17:19.925Z,20.60
2022-08-04T05:20:01.169Z,20.60
2022-08-04T05:22:40.494Z,20.70
2022-08-04T05:25:13.061Z,20.70
2022-08-04T05:27:51.033Z,20.80
2022-08-04T05:30:18.001Z,20.90
2022-08-04T05:33:03.916Z,20.90
2022-08-04T05:35:37.394Z,20.90
2022-08-04T05:38:27.115Z,20.90
2022-08-04T05:40:54.216Z,21.00
2022-08-04T05:43:21.259Z,21.10
2022-08-04T05:45:48.760Z,21.10
2022-08-04T05:48:16.441Z,21.20
2022-08-04T05:50:46.059Z,21.20
2022-08-04T05:53:16.951Z,21.30
2022-08-04T05:55:59.214Z,21.40
2022-08-04T05:58:31.013Z,21.40
2022-08-04T06:01:01.659Z,21.50
2022-08-04T06:03:30.031Z,21.60
2022-08-04T06:05:57.812Z,21.70
2022-08-04T06:08:25.169Z,21.80
2022-08-04T06:10:52.169Z,21.80
2022-08-04T06:13:46.635Z,21.80
2022-08-04T06:16:28.494Z,21.90
2022-08-04T06:19:59.347Z,21.90
2022-08-04T06:21:54.861Z,22.00
2022-08-04T06:24:28.358Z,22.00
2022-08-04T06:26:56.036Z,22.00
2022-08-04T06:29:28.270Z,22.00
2022-08-04T06:32:31.585Z,22.10
2022-08-04T06:34:48.906Z,22.20
2022-08-04T06:37:40.890Z,22.20
2022-08-04T06:40:29.595Z,22.40
2022-08-04T06:42:52.397Z,22.40
2022-08-04T06:45:21.462Z,22.60
2022-08-04T06:47:49.886Z,22.60
2022-08-04T06:51:30.287Z,22.60
2022-08-04T06:53:04.489Z,22.60
2022-08-04T06:55:32.748Z,22.70
2022-08-04T06:58:03.059Z,22.70
2022-08-04T07:00:32.312Z,22.80
2022-08-04T07:03:00.082Z,23.00
2022-08-04T07:05:27.016Z,23.00
2022-08-04T07:07:58.084Z,23.00
2022-08-04T07:10:29.061Z,23.10
2022-08-04T07:13:00.193Z,23.20
2022-08-04T07:15:27.847Z,23.10
2022-08-04T07:18:02.037Z,23.20
2022-08-04T07:20:35.900Z,23.30
2022-08-04T07:23:07.673Z,23.10
2022-08-04T07:25:59.888Z,23.20
2022-08-04T07:28:24.669Z,23.20
2022-08-04T07:30:51.717Z,23.40
2022-08-04T07:33:19.034Z,23.40
2022-08-04T07:36:10.646Z,23.40
2022-08-04T07:38:33.671Z,23.40
2022-08-04T07:41:35.264Z,23.50
2022-08-04T07:43:52.581Z,23.50
2022-08-04T07:46:19.786Z,23.30
2022-08-04T07:48:46.860Z,23.20
2022-08-04T07:51:13.783Z,23.10
2022-08-04T07:53:54.144Z,23.10
2022-08-04T07:56:22.691Z,23.10
2022-08-04T07:58:50.480Z,23.10
2022-08-04T08:01:19.061Z,23.10
2022-08-04T08:03:46.896Z,23.10
2022-08-04T08:06:31.655Z,23.10
2022-08-04T08:09:13.682Z,23.20
2022-08-04T08:12:37.269Z,23.00
2022-08-04T08:14:30.811Z,23.20
2022-08-04T08:17:00.042Z,23.20
2022-08-04T08:19:26.998Z,23.20
2022-08-04T08:21:58.855Z,23.30
2022-08-04T08:24:28.887Z,23.30
2022-08-04T08:26:56.951Z,23.40
2022-08-04T08:29:24.258Z,23.50
2022-08-04T08:31:58.369Z,23.70
2022-08-04T08:34:28.777Z,23.60
2022-08-04T08:37:03.889Z,23.50
2022-08-04T08:39:51.007Z,23.60
2022-08-04T08:42:41.652Z,23.60
2022-08-04T08:45:37.808Z,23.50
2022-08-04T08:48:06.642Z,23.60
2022-08-04T08:50:55.883Z,23.60
2022-08-04T08:53:51.933Z,23.70
2022-08-04T08:56:36.359Z,23.70
2022-08-04T08:59:16.879Z,23.80
2022-08-04T09:02:02.614Z,24.00
2022-08-04T09:04:38.660Z,24.10
2022-08-04T09:07:27.389Z,24.30
2022-08-04T09:10:18.414Z,24.10
2022-08-04T09:13:01.501Z,24.20
2022-08-04T09:16:05.860Z,24.20
2022-08-04T09:18:47.552Z,24.10
2022-08-04T09:21:43.987Z,24.50
2022-08-04T09:24:35.491Z,24.60
2022-08-04T09:27:20.164Z,24.60
2022-08-04T09:29:48.781Z,24.60
2022-08-04T09:32:24.213Z,24.80
2022-08-04T09:35:21.879Z,24.80
2022-08-04T09:38:21.433Z,25.00
2022-08-04T09:41:33.903Z,25.20
2022-08-04T09:44:50.180Z,25.20
2022-08-04T09:47:17.178Z,25.20
2022-08-04T09:50:05.197Z,25.20
2022-08-04T09:52:50.964Z,25.00
2022-08-04T09:55:54.357Z,24.90
2022-08-04T09:58:37.451Z,24.70
2022-08-04T10:01:09.429Z,24.80
2022-08-04T10:03:38.583Z,25.10
2022-08-04T10:06:24.693Z,25.20
2022-08-04T10:09:27.455Z,25.40
2022-08-04T10:12:03.488Z,25.40
2022-08-04T10:14:52.776Z,25.40
2022-08-04T10:17:52.263Z,25.60
2022-08-04T10:20:36.626Z,25.60
2022-08-04T10:24:00.458Z,25.50
2022-08-04T10:26:47.734Z,25.60
2022-08-04T10:29:41.852Z,25.50
2022-08-04T10:32:18.782Z,25.30
2022-08-04T10:35:10.480Z,25.30
2022-08-04T10:38:01.662Z,25.10
2022-08-04T10:40:46.133Z,25.30
2022-08-04T10:43:36.838Z,25.10
2022-08-04T10:46:13.609Z,25.00
2022-08-04T10:48:46.599Z,24.90
2022-08-04T10:51:58.543Z,25.00
2022-08-04T10:54:37.805Z,25.10
2022-08-04T10:57:12.500Z,25.00
2022-08-04T11:00:00.311Z,24.90
2022-08-04T11:02:42.161Z,24.90
2022-08-04T11:05:21.739Z,24.80
2022-08-04T11:07:51.479Z,24.80
2022-08-04T11:10:22.125Z,24.80
2022-08-04T11:12:55.539Z,24.70
2022-08-04T11:15:25.522Z,24.60
2022-08-04T11:18:02.396Z,24.30
2022-08-04T11:20:43.774Z,24.20
2022-08-04T11:23:16.412Z,24.30
2022-08-04T11:25:58.426Z,24.20
2022-08-04T11:28:39.720Z,24.20
2022-08-04T11:31:18.151Z,24.20
2022-08-04T11:34:01.684Z,24.30
2022-08-04T11:36:50.110Z,24.30
2022-08-04T11:39:30.264Z,24.30
2022-08-04T11:42:08.744Z,24.30
2022-08-04T11:44:53.159Z,24.40
2022-08-04T11:47:35.197Z,24.50
2022-08-04T11:50:43.921Z,24.60
2022-08-04T11:53:16.974Z,24.60
2022-08-04T11:56:06.992Z,24.60
2022-08-04T11:58:33.180Z,24.60
2022-08-04T12:01:17.394Z,24.90
2022-08-04T12:04:48.687Z,25.20
2022-08-04T12:07:42.156Z,25.40
2022-08-04T12:10:41.986Z,25.60
2022-08-04T12:13:13.365Z,25.60
2022-08-04T12:15:55.692Z,25.50
2022-08-04T12:18:36.979Z,25.50
2022-08-04T12:21:19.078Z,25.60
2022-08-04T12:23:48.243Z,25.60
2022-08-04T12:26:38.600Z,25.80
2022-08-04T12:29:10.836Z,26.00
2022-08-04T12:31:49.913Z,25.90
2022-08-04T12:34:32.720Z,25.90
2022-08-04T12:37:18.781Z,25.90
2022-08-04T12:40:17.153Z,26.00
2022-08-04T12:42:56.216Z,26.20
2022-08-04T12:45:27.310Z,26.10
2022-08-04T12:47:56.819Z,26.40
2022-08-04T12:50:24.020Z,26.50
2022-08-04T12:53:02.288Z,26.50
2022-08-04T12:55:31.695Z,26.40
2022-08-04T12:57:58.865Z,26.50
2022-08-04T13:00:39.665Z,26.40
2022-08-04T13:03:10.468Z,26.30
2022-08-04T13:05:39.457Z,26.20
2022-08-04T13:08:10.850Z,26.40
2022-08-04T13:10:40.276Z,26.30
2022-08-04T13:13:12.009Z,26.00
2022-08-04T13:15:47.307Z,26.00
2022-08-04T13:18:28.934Z,26.10
2022-08-04T13:20:58.023Z,26.20
2022-08-04T13:23:26.313Z,26.20
2022-08-04T13:26:44.987Z,26.00
2022-08-04T13:28:42.828Z,26.00
2022-08-04T13:31:13.437Z,26.10
2022-08-04T13:33:48.242Z,26.30
2022-08-04T13:36:16.407Z,26.20
2022-08-04T13:39:00.435Z,25.80
2022-08-04T13:41:30.802Z,25.90
2022-08-04T13:44:17.893Z,26.10
2022-08-04T13:46:50.902Z,26.20
2022-08-04T13:49:54.039Z,26.30
2022-08-04T13:52:10.508Z,26.40
2022-08-04T13:54:47.885Z,26.40
2022-08-04T13:57:21.829Z,26.50
2022-08-04T13:59:56.634Z,26.50
2022-08-04T14:02:51.567Z,26.50
2022-08-04T14:05:27.268Z,26.40
2022-08-04T14:07:58.806Z,26.40
2022-08-04T14:10:25.807Z,26.40
2022-08-04T14:12:52.929Z,26.50
2022-08-04T14:16:02.504Z,26.60
2022-08-04T14:18:28.865Z,26.70
2022-08-04T14:21:10.883Z,26.60
2022-08-04T14:23:52.298Z,26.60
2022-08-04T14:26:32.902Z,26.40
2022-08-04T14:29:27.230Z,26.40
2022-08-04T14:32:06.095Z,26.40
2022-08-04T14:34:41.452Z,26.30
2022-08-04T14:37:17.417Z,26.40
2022-08-04T14:40:17.627Z,26.50
2022-08-04T14:42:42.809Z,26.40
2022-08-04T14:45:10.352Z,26.40
2022-08-04T14:47:52.974Z,26.50
2022-08-04T14:50:23.506Z,26.30
2022-08-04T14:52:53.346Z,26.30
2022-08-04T14:55:22.611Z,26.20
2022-08-04T14:58:37.474Z,26.20
2022-08-04T15:00:38.176Z,26.20
2022-08-04T15:03:08.842Z,26.20
2022-08-04T15:06:00.395Z,26.10
2022-08-04T15:08:31.887Z,26.10
2022-08-04T15:11:02.600Z,25.80
2022-08-04T15:13:31.374Z,25.80
2022-08-04T15:16:06.233Z,25.90
2022-08-04T15:18:35.641Z,26.00
2022-08-04T15:21:02.833Z,26.20
2022-08-04T15:23:31.774Z,26.10
2022-08-04T15:26:14.061Z,26.00
2022-08-04T15:28:45.004Z,25.80
2022-08-04T15:32:06.228Z,25.80
2022-08-04T15:33:59.066Z,25.70
2022-08-04T15:36:31.919Z,25.70
2022-08-04T15:38:58.781Z,25.80
2022-08-04T15:41:46.426Z,25.80
2022-08-04T15:44:49.827Z,25.60
2022-08-04T15:47:17.880Z,25.60
2022-08-04T15:49:45.799Z,25.50
2022-08-04T15:52:16.863Z,25.50
2022-08-04T15:54:52.803Z,25.30
2022-08-04T15:58:01.340Z,25.40
2022-08-04T16:00:28.626Z,25.30
2022-08-04T16:02:56.043Z,25.30
2022-08-04T16:05:23.518Z,25.30
2022-08-04T16:08:04.796Z,25.40
2022-08-04T16:10:31.614Z,25.40
2022-08-04T16:13:10.086Z,25.40
2022-08-04T16:15:52.940Z,25.20
2022-08-04T16:18:38.524Z,25.10
2022-08-04T16:21:08.036Z,25.10
2022-08-04T16:23:59.301Z,25.00
2022-08-04T16:26:45.080Z,24.90
2022-08-04T16:29:34.201Z,24.80
2022-08-04T16:32:18.929Z,24.70
2022-08-04T16:34:55.238Z,24.40
2022-08-04T16:37:24.793Z,24.30
2022-08-04T16:39:52.167Z,24.40
2022-08-04T16:42:29.005Z,24.40
2022-08-04T16:45:08.876Z,24.40
2022-08-04T16:47:48.163Z,24.50
2022-08-04T16:50:22.489Z,24.40
2022-08-04T16:52:51.247Z,24.40
2022-08-04T16:55:18.980Z,24.50
2022-08-04T16:57:49.771Z,24.40
2022-08-04T17:00:17.454Z,24.30
2022-08-04T17:02:47.131Z,24.30
2022-08-04T17:05:39.718Z,24.20
2022-08-04T17:08:29.155Z,24.20
2022-08-04T17:10:55.556Z,24.10
2022-08-04T17:14:02.404Z,24.20
2022-08-04T17:16:21.044Z,24.10
2022-08-04T17:18:49.934Z,23.90
2022-08-04T17:21:23.519Z,23.70
2022-08-04T17:24:13.042Z,23.80
2022-08-04T17:26:45.546Z,23.90
2022-08-04T17:29:20.084Z,23.90
2022-08-04T17:31:48.010Z,23.90
2022-08-04T17:34:19.253Z,23.90
2022-08-04T17:36:47.948Z,24.00
2022-08-04T17:39:22.597Z,23.80
2022-08-04T17:41:55.378Z,23.80
2022-08-04T17:44:36.485Z,23.70
2022-08-04T17:47:19.070Z,23.70
2022-08-04T17:49:52.571Z,23.70
2022-08-04T17:52:39.665Z,23.80
2022-08-04T17:55:16.502Z,23.80
2022-08-04T17:57:52.683Z,23.80
2022-08-04T18:00:20.197Z,23.80
2022-08-04T18:02:54.681Z,23.80
2022-08-04T18:08:39.959Z,23.60
2022-08-04T18:11:05.911Z,23.60
2022-08-04T18:13:42.355Z,23.40
2022-08-04T18:16:22.556Z,23.40
2022-08-04T18:19:13.227Z,23.20
2022-08-04T18:21:46.235Z,23.10
2022-08-04T18:24:28.604Z,23.10
2022-08-04T18:27:06.541Z,23.30
2022-08-04T18:29:39.331Z,23.20
2022-08-04T18:32:09.949Z,22.90
2022-08-04T18:34:40.744Z,22.80
2022-08-04T18:38:05.984Z,22.80
2022-08-04T18:40:30.046Z,22.90
2022-08-04T18:42:57.095Z,23.00
2022-08-04T18:45:35.305Z,22.80
2022-08-04T18:48:14.602Z,23.00
2022-08-04T18:51:07.761Z,22.90
2022-08-04T18:53:34.857Z,22.80
2022-08-04T18:56:04.363Z,22.70
2022-08-04T18:58:33.609Z,22.70
2022-08-04T19:01:01.297Z,22.80
2022-08-04T19:03:30.690Z,22.70
2022-08-04T19:06:01.417Z,22.70
2022-08-04T19:08:34.259Z,22.80
2022-08-04T19:11:36.821Z,22.80
2022-08-04T19:13:54.775Z,22.70
2022-08-04T19:16:29.894Z,22.60
2022-08-04T19:18:57.814Z,22.70
2022-08-04T19:22:00.247Z,22.60
2022-08-04T19:24:32.062Z,22.50
2022-08-04T19:27:01.625Z,22.30
2022-08-04T19:29:38.059Z,22.30
2022-08-04T19:32:14.091Z,22.30
2022-08-04T19:34:45.717Z,22.30
2022-08-04T19:37:58.032Z,22.20
2022-08-04T19:40:10.161Z,22.20
2022-08-04T19:42:37.895Z,22.20
2022-08-04T19:45:05.870Z,22.20
2022-08-04T19:48:17.145Z,22.20
2022-08-04T19:50:20.114Z,22.20
2022-08-04T19:52:52.575Z,22.10
2022-08-04T19:55:22.369Z,22.20
2022-08-04T19:57:51.049Z,22.10
2022-08-04T20:00:33.439Z,22.10
2022-08-04T20:03:02.703Z,22.10
2022-08-04T20:08:17.160Z,22.00
2022-08-04T20:10:51.175Z,22.00
2022-08-04T20:13:20.094Z,21.90
2022-08-04T20:15:57.586Z,21.90
2022-08-04T20:18:36.315Z,21.90
2022-08-04T20:21:19.513Z,22.00
2022-08-04T20:23:52.381Z,21.80
2022-08-04T20:26:21.171Z,21.80
2022-08-04T20:28:54.291Z,21.70
2022-08-04T20:31:23.246Z,21.50
2022-08-04T20:33:58.526Z,21.60
2022-08-04T20:36:25.766Z,21.60
2022-08-04T20:38:54.633Z,21.70
2022-08-04T20:41:22.361Z,21.50
2022-08-04T20:43:50.712Z,21.60
2022-08-04T20:46:29.419Z,21.60
2022-08-04T20:48:57.839Z,21.50
2022-08-04T20:54:16.585Z,21.50
2022-08-04T20:56:50.983Z,21.40
2022-08-04T20:59:19.710Z,21.40
2022-08-04T21:01:49.545Z,21.40
2022-08-04T21:04:45.285Z,21.40
2022-08-04T21:07:16.685Z,21.20
2022-08-04T21:09:50.868Z,21.20
2022-08-04T21:12:28.486Z,21.30
2022-08-04T21:15:13.558Z,21.30
2022-08-04T21:17:58.495Z,21.30
2022-08-04T21:20:32.129Z,21.30
2022-08-04T21:23:02.101Z,21.30
2022-08-04T21:25:30.879Z,21.40
2022-08-04T21:27:59.095Z,21.30
2022-08-04T21:30:31.090Z,21.20
2022-08-04T21:33:04.731Z,21.20
2022-08-04T21:35:38.116Z,21.10
2022-08-04T21:38:17.267Z,21.20
2022-08-04T21:41:01.403Z,21.20
2022-08-04T21:43:42.556Z,21.10
2022-08-04T21:46:10.432Z,21.10
2022-08-04T21:48:39.155Z,21.10
2022-08-04T21:51:58.772Z,21.00
2022-08-04T21:54:09.399Z,21.00
2022-08-04T21:56:36.590Z,21.10
2022-08-04T21:59:11.138Z,21.10
2022-08-04T22:01:50.455Z,21.10
2022-08-04T22:04:19.827Z,21.00
2022-08-04T22:06:52.140Z,21.00
2022-08-04T22:09:22.041Z,20.80
2022-08-04T22:11:51.038Z,20.80
2022-08-04T22:14:29.529Z,20.90
2022-08-04T22:17:02.639Z,20.90
2022-08-04T22:19:55.006Z,20.90
2022-08-04T22:22:25.327Z,20.90
2022-08-04T22:25:01.726Z,20.90
2022-08-04T22:27:55.168Z,20.80
2022-08-04T22:30:23.297Z,20.90
2022-08-04T22:32:51.167Z,20.80
2022-08-04T22:35:36.545Z,20.90
2022-08-04T22:38:24.477Z,20.80
2022-08-04T22:41:33.737Z,20.80
2022-08-04T22:44:01.395Z,20.80
2022-08-04T22:46:30.199Z,20.70
2022-08-04T22:48:57.344Z,20.70
2022-08-04T22:51:27.006Z,20.70
2022-08-04T22:53:54.296Z,20.60
2022-08-04T22:56:38.216Z,20.60
2022-08-04T22:59:11.169Z,20.60
2022-08-04T23:02:00.791Z,20.50
2022-08-04T23:04:32.686Z,20.50
2022-08-04T23:07:05.075Z,20.40
2022-08-04T23:09:49.997Z,20.40
2022-08-04T23:12:27.345Z,20.50
2022-08-04T23:14:58.219Z,20.50
2022-08-04T23:17:27.304Z,20.40
2022-08-04T23:19:59.536Z,20.40
2022-08-04T23:22:37.419Z,20.40
2022-08-04T23:25:15.378Z,20.30
2022-08-04T23:27:50.751Z,20.30
2022-08-04T23:30:24.818Z,20.30
2022-08-04T23:32:57.719Z,20.40
2022-08-04T23:35:24.847Z,20.30
2022-08-04T23:37:57.437Z,20.30
2022-08-04T23:40:32.763Z,20.20
2022-08-04T23:43:01.833Z,20.20
2022-08-04T23:46:04.361Z,20.30
2022-08-04T23:48:19.184Z,20.30
2022-08-04T23:50:48.334Z,20.20
2022-08-04T23:53:18.353Z,20.20
2022-08-04T23:55:49.788Z,20.10
2022-08-04T23:58:20.881Z,20.20
